MET'MAP v2.0
soon released !

Expected late october,
this new version will be
more efficient, smarter,
and hosted on a brand new
server x3 powerfull...
...and still free !


Not compatible ?
Try the mobile version !

LOG IN : | Subscribe | Disclaimer | Who is Orbifly ? |
ICAO code :

TAF - LGSO Syros Airport - 03 Apr 2020 21:41 UTC - Data Source NOAA   


- Airport Elevation : 236 ft
- IATA code : JSY
- No reported NOTAMs.


LGSO - Syros Airport

Latest METAR recorded : 2015/08/11 07:50 LGSO 110750Z VRB03KT CAVOK 30/15 Q1011
NO TAF


MET'MAP, your aeronautical weather chart ! - Copyright ORBIFLY December 2007

Programming & Development : Alexandra Zaïnal
Co-Developer : Marc-Olivier Méhu
Technical & hardware support : Manuel Goepfert
Concept & Financing : Baudouin d'Aumeries